Time;durP1;ratioP1;P1;durP2;ratioP2;P2;SDS_P1;SDS_P2;PMS_P1;PMS_P2;Temp;Humidity;BMP_temperature;BMP_pressure;BME280_temperature;BME280_humidity;BME280_pressure;Samples;Min_cycle;Max_cycle;Signal;HPM_P1;HPM_P2
2022/01/18 00:02:08;;;;;;;3.43;1.90;;;6.50;62.90;;;;;;4984209;28;20030;-81
2022/01/18 00:04:35;;;;;;;4.33;1.67;;;6.50;63.00;;;;;;4989381;28;20029;-81
2022/01/18 00:07:01;;;;;;;5.27;3.00;;;6.50;63.00;;;;;;4989674;28;20540;-81
2022/01/18 00:09:27;;;;;;;4.90;1.97;;;6.50;63.00;;;;;;4988001;28;20030;-81
2022/01/18 00:12:00;;;;;;;4.40;2.30;;;6.50;63.10;;;;;;4987150;28;20081;-81
2022/01/18 00:14:41;;;;;;;4.67;2.90;;;6.50;63.10;;;;;;4986935;28;20060;-81
2022/01/18 00:19:46;;;;;;;5.23;2.13;;;6.50;63.10;;;;;;5009083;28;20030;-81
2022/01/18 00:22:13;;;;;;;5.43;2.20;;;6.40;63.30;;;;;;4990635;28;20096;-81
2022/01/18 00:24:41;;;;;;;3.13;1.90;;;6.40;63.30;;;;;;4991183;28;20033;-81
2022/01/18 00:27:10;;;;;;;5.03;2.27;;;6.40;63.30;;;;;;5005492;28;20045;-81
2022/01/18 00:29:45;;;;;;;2.90;1.93;;;6.40;63.50;;;;;;5008479;28;20030;-81
2022/01/18 00:32:26;;;;;;;2.77;1.60;;;6.40;63.50;;;;;;4989432;28;20125;-81
2022/01/18 00:34:55;;;;;;;3.97;2.17;;;6.40;64.20;;;;;;5000750;28;20030;-81
2022/01/18 00:37:50;;;;;;;4.23;2.50;;;6.40;63.70;;;;;;4995012;28;20034;-80
2022/01/18 00:40:09;;;;;;;6.67;3.37;;;6.40;63.80;;;;;;5005358;28;20397;-81
2022/01/18 00:42:35;;;;;;;6.20;3.20;;;6.30;64.00;;;;;;5000097;28;20026;-81
2022/01/18 00:45:01;;;;;;;7.10;3.00;;;6.40;64.20;;;;;;4997197;28;20539;-81
2022/01/18 00:47:27;;;;;;;5.90;3.23;;;6.40;64.30;;;;;;5001660;28;20073;-81
2022/01/18 00:50:00;;;;;;;4.87;2.53;;;6.40;64.40;;;;;;4988128;28;20026;-81
2022/01/18 00:52:27;;;;;;;4.20;2.17;;;6.40;64.50;;;;;;4997677;28;20038;-81
2022/01/18 00:54:54;;;;;;;5.20;2.43;;;6.40;64.50;;;;;;4994573;28;20405;-81
2022/01/18 00:57:19;;;;;;;3.73;2.23;;;6.40;64.60;;;;;;5000225;28;20059;-81
2022/01/18 00:59:47;;;;;;;3.70;1.80;;;6.40;64.60;;;;;;4995637;28;20025;-81
2022/01/18 01:02:13;;;;;;;2.57;1.60;;;6.40;64.60;;;;;;4995771;28;20121;-81
2022/01/18 01:04:46;;;;;;;2.23;1.20;;;6.40;64.80;;;;;;5000625;28;20516;-81
2022/01/18 01:07:12;;;;;;;3.33;1.60;;;6.40;64.80;;;;;;5011175;28;20026;-82
2022/01/18 01:09:38;;;;;;;2.70;1.37;;;6.40;64.80;;;;;;4993206;28;20040;-81
2022/01/18 01:12:05;;;;;;;2.60;1.60;;;6.40;64.80;;;;;;4993838;28;20033;-81
2022/01/18 01:14:33;;;;;;;2.83;1.60;;;6.40;64.80;;;;;;4998934;28;20049;-81
2022/01/18 01:43:25;;;;;;;5.87;1.67;;;6.30;65.70;;;;;;5005732;28;20181;-82
2022/01/18 01:45:52;;;;;;;3.63;1.33;;;6.30;65.70;;;;;;4990614;28;20377;-82
2022/01/18 01:48:20;;;;;;;7.83;1.60;;;6.30;65.70;;;;;;4994282;28;20045;-81
2022/01/18 01:50:54;;;;;;;2.97;1.40;;;6.30;65.60;;;;;;4986003;28;20393;-81
2022/01/18 01:53:24;;;;;;;4.07;1.60;;;6.40;65.60;;;;;;5001909;28;20084;-82
2022/01/18 01:55:52;;;;;;;3.83;1.57;;;6.40;65.60;;;;;;4994227;28;20037;-81
2022/01/18 01:58:24;;;;;;;4.47;1.80;;;6.40;65.50;;;;;;5002497;28;20037;-81
2022/01/18 02:01:11;;;;;;;4.37;1.80;;;6.40;65.80;;;;;;5002716;28;20611;-81
2022/01/18 02:03:37;;;;;;;3.73;1.73;;;6.30;65.90;;;;;;4992115;28;20137;-82
2022/01/18 02:06:03;;;;;;;5.37;2.40;;;6.30;66.00;;;;;;5002399;28;20180;-81
2022/01/18 02:08:29;;;;;;;6.90;2.10;;;6.30;65.90;;;;;;5002046;28;20053;-81
2022/01/18 02:10:55;;;;;;;4.10;1.73;;;6.30;65.90;;;;;;4999513;28;20026;-81
2022/01/18 02:13:20;;;;;;;13.67;6.20;;;6.30;66.10;;;;;;4993928;28;20034;-81
2022/01/18 02:24:09;;;;;;;5.17;2.67;;;6.40;66.50;;;;;;5010739;28;20053;-82
2022/01/18 02:26:35;;;;;;;2.53;1.87;;;6.30;66.60;;;;;;5002683;28;20030;-82
2022/01/18 02:29:05;;;;;;;3.23;1.87;;;6.20;66.70;;;;;;5000030;28;20022;-82
2022/01/18 02:31:31;;;;;;;4.37;2.37;;;6.20;66.90;;;;;;4991309;28;20142;-81
2022/01/18 02:34:15;;;;;;;3.63;2.10;;;6.10;67.10;;;;;;5004278;28;20030;-81
2022/01/18 02:36:42;;;;;;;3.23;2.10;;;6.10;67.70;;;;;;4991639;28;20499;-82
2022/01/18 02:39:09;;;;;;;3.40;2.10;;;6.20;67.50;;;;;;4994172;28;20037;-82
2022/01/18 02:41:35;;;;;;;6.13;2.40;;;6.20;67.20;;;;;;5011088;28;20026;-81
2022/01/18 02:44:08;;;;;;;4.67;2.77;;;6.10;67.10;;;;;;5008045;28;20033;-81
2022/01/18 02:46:34;;;;;;;6.20;3.10;;;6.10;67.30;;;;;;4994232;28;20111;-82
2022/01/18 02:49:02;;;;;;;4.47;2.23;;;6.10;67.40;;;;;;5009393;28;20504;-81
2022/01/18 02:51:28;;;;;;;4.83;2.60;;;6.10;67.70;;;;;;4996253;28;20061;-81
2022/01/18 02:54:03;;;;;;;4.17;2.70;;;6.10;67.60;;;;;;4993256;28;20560;-81
2022/01/18 02:56:36;;;;;;;6.47;4.30;;;6.20;67.60;;;;;;4993896;28;20057;-81
2022/01/18 03:04:18;;;;;;;4.23;2.70;;;6.20;67.80;;;;;;5008638;28;20037;-82
2022/01/18 03:06:44;;;;;;;3.30;1.97;;;6.20;68.30;;;;;;4992536;28;20042;-82
2022/01/18 03:09:10;;;;;;;5.40;3.17;;;6.20;67.70;;;;;;5009996;28;20038;-82
2022/01/18 03:11:35;;;;;;;6.73;4.23;;;6.20;67.70;;;;;;5003294;28;20468;-82
2022/01/18 03:14:02;;;;;;;12.53;5.73;;;6.20;67.60;;;;;;5000815;28;20404;-81
2022/01/18 03:16:27;;;;;;;5.83;3.80;;;6.10;67.70;;;;;;4992159;28;20042;-81
2022/01/18 03:18:53;;;;;;;3.37;2.10;;;6.20;67.80;;;;;;5007936;28;20026;-81
2022/01/18 03:21:19;;;;;;;3.80;2.20;;;6.20;67.90;;;;;;5000612;28;20026;-82
2022/01/18 03:23:51;;;;;;;3.03;1.77;;;6.20;67.80;;;;;;5011338;28;20385;-82
2022/01/18 03:26:18;;;;;;;13.45;6.30;;;6.10;67.60;;;;;;5009214;28;20083;-81
2022/01/18 03:28:44;;;;;;;10.17;5.00;;;6.10;67.90;;;;;;4995052;28;20037;-81
2022/01/18 03:31:10;;;;;;;5.03;3.10;;;6.20;68.50;;;;;;5007987;28;20127;-82
2022/01/18 03:33:36;;;;;;;5.30;3.00;;;6.20;67.80;;;;;;4993224;28;20156;-81
2022/01/18 03:36:05;;;;;;;3.13;1.60;;;6.20;67.70;;;;;;4995536;28;20499;-80
2022/01/18 03:38:31;;;;;;;3.73;2.10;;;6.20;67.50;;;;;;4995948;28;20032;-80
2022/01/18 03:40:58;;;;;;;5.97;3.00;;;6.20;67.40;;;;;;5008801;28;20025;-80
2022/01/18 03:43:24;;;;;;;5.10;2.63;;;6.20;67.50;;;;;;5001966;28;20026;-81
2022/01/18 03:45:51;;;;;;;6.27;3.30;;;6.20;67.60;;;;;;5003392;28;20040;-81
2022/01/18 03:48:28;;;;;;;6.83;2.87;;;6.20;67.70;;;;;;4998375;28;20054;-81
2022/01/18 03:50:54;;;;;;;4.90;2.83;;;6.20;67.80;;;;;;4985263;28;20076;-82
2022/01/18 03:53:21;;;;;;;5.30;3.23;;;6.20;67.70;;;;;;4990174;28;20450;-82
2022/01/18 03:55:47;;;;;;;7.80;4.20;;;6.20;67.70;;;;;;4990926;28;20532;-81
2022/01/18 03:58:13;;;;;;;5.27;3.57;;;6.20;67.70;;;;;;4994324;28;20419;-81
2022/01/18 04:00:38;;;;;;;6.53;4.13;;;6.20;67.90;;;;;;4996525;28;20030;-81
2022/01/18 04:03:04;;;;;;;6.07;3.60;;;6.20;67.90;;;;;;5002107;28;20033;-82
2022/01/18 04:05:31;;;;;;;7.60;4.40;;;6.20;68.10;;;;;;4987798;28;20120;-81
2022/01/18 04:07:57;;;;;;;6.33;4.23;;;6.20;67.90;;;;;;4992399;28;20026;-81
2022/01/18 04:10:22;;;;;;;6.43;4.40;;;6.20;67.90;;;;;;5009905;28;20040;-82
2022/01/18 04:12:49;;;;;;;8.87;4.37;;;6.10;68.10;;;;;;5003185;28;20503;-82
2022/01/18 04:15:17;;;;;;;7.30;4.97;;;6.10;68.30;;;;;;5007061;28;20042;-81
2022/01/18 04:18:07;;;;;;;7.47;4.67;;;6.00;68.20;;;;;;5008629;28;20548;-81
2022/01/18 04:26:56;;;;;;;7.73;4.63;;;6.00;68.50;;;;;;5002953;28;20040;-82
2022/01/18 04:28:50;;;;;;;6.03;3.97;;;6.00;68.40;;;;;;5008486;28;20028;-81
2022/01/18 04:31:16;;;;;;;6.00;4.47;;;6.00;68.40;;;;;;5005613;28;20038;-82
2022/01/18 04:33:42;;;;;;;5.10;3.83;;;6.00;68.50;;;;;;4994618;28;20038;-82
2022/01/18 04:36:09;;;;;;;6.27;4.23;;;6.00;68.50;;;;;;5012142;28;20396;-82
2022/01/18 04:38:36;;;;;;;6.77;4.37;;;6.00;68.40;;;;;;5009422;28;20025;-81
2022/01/18 04:41:06;;;;;;;9.37;4.17;;;6.00;68.50;;;;;;4993461;28;20081;-81
2022/01/18 04:48:49;;;;;;;12.03;4.60;;;6.10;68.40;;;;;;5013725;28;20040;-81
2022/01/18 04:51:15;;;;;;;6.50;4.57;;;6.10;68.40;;;;;;4995627;28;20026;-81
2022/01/18 04:53:49;;;;;;;7.43;5.10;;;6.10;68.50;;;;;;5006399;28;20032;-81
2022/01/18 04:56:18;;;;;;;9.90;5.07;;;6.00;68.60;;;;;;4998870;28;20493;-82
2022/01/18 04:58:44;;;;;;;8.40;5.33;;;6.00;68.80;;;;;;4993686;28;20439;-82
2022/01/18 05:01:11;;;;;;;11.83;5.70;;;6.00;68.90;;;;;;4994493;28;20489;-82
2022/01/18 05:03:37;;;;;;;8.67;5.27;;;6.10;69.00;;;;;;4992515;28;20035;-82
2022/01/18 05:06:09;;;;;;;9.37;6.03;;;6.00;68.80;;;;;;4995990;28;20091;-81
2022/01/18 05:08:38;;;;;;;10.80;5.73;;;6.00;68.90;;;;;;5003719;28;20017;-81
2022/01/18 05:11:06;;;;;;;13.07;6.10;;;6.00;68.80;;;;;;5000157;28;20033;-81
2022/01/18 05:19:11;;;;;;;8.87;5.67;;;6.00;68.60;;;;;;5010904;28;20045;-81
2022/01/18 05:24:30;;;;;;;7.37;5.60;;;6.10;68.50;;;;;;5012372;28;20033;-81
2022/01/18 05:26:57;;;;;;;10.17;5.87;;;6.10;68.50;;;;;;5012100;28;20495;-81
2022/01/18 05:29:23;;;;;;;9.53;5.60;;;6.10;68.70;;;;;;4997534;28;20034;-81
2022/01/18 05:31:49;;;;;;;13.73;6.33;;;6.10;68.60;;;;;;4994224;28;20034;-81
2022/01/18 05:34:16;;;;;;;10.90;6.17;;;6.10;68.60;;;;;;5008259;28;20030;-81
2022/01/18 05:36:42;;;;;;;10.40;8.00;;;6.00;68.80;;;;;;5002914;28;20393;-81
2022/01/18 05:39:09;;;;;;;8.87;6.63;;;6.00;68.80;;;;;;5001239;28;20038;-81
2022/01/18 05:41:41;;;;;;;7.83;5.60;;;6.00;69.20;;;;;;4990429;28;20118;-81
2022/01/18 05:44:07;;;;;;;14.07;6.03;;;6.00;69.30;;;;;;4996307;28;20060;-82
2022/01/18 05:46:33;;;;;;;7.20;5.73;;;6.00;69.20;;;;;;4994615;28;20030;-81
2022/01/18 05:49:01;;;;;;;10.30;6.00;;;6.00;69.20;;;;;;5003161;28;20440;-82
2022/01/18 05:51:30;;;;;;;8.57;5.87;;;6.00;69.10;;;;;;5003817;28;20041;-81
2022/01/18 05:53:56;;;;;;;10.23;6.37;;;5.90;69.10;;;;;;4985715;28;20470;-81
2022/01/18 05:56:21;;;;;;;10.83;6.83;;;5.90;69.20;;;;;;4988178;28;20032;-81
2022/01/18 05:58:49;;;;;;;9.07;6.97;;;5.90;69.40;;;;;;4996993;28;20072;-82
2022/01/18 06:01:24;;;;;;;13.97;9.07;;;5.90;69.30;;;;;;4996019;28;20041;-81
2022/01/18 06:04:18;;;;;;;13.53;9.97;;;5.90;69.50;;;;;;4999105;28;20029;-82
2022/01/18 06:06:53;;;;;;;12.93;8.80;;;5.90;69.40;;;;;;5009785;28;20076;-81
2022/01/18 06:09:22;;;;;;;9.73;7.22;;;6.00;69.40;;;;;;4992553;28;20040;-81
2022/01/18 06:11:48;;;;;;;12.93;10.00;;;5.80;69.30;;;;;;5013406;28;20042;-81
2022/01/18 06:14:15;;;;;;;16.20;11.17;;;5.80;69.60;;;;;;5006572;28;20025;-81
2022/01/18 06:16:40;;;;;;;13.13;9.87;;;5.80;69.70;;;;;;5013921;28;20049;-81
2022/01/18 06:19:06;;;;;;;14.07;7.80;;;5.80;69.70;;;;;;5002812;28;20117;-81
2022/01/18 06:21:32;;;;;;;12.60;9.57;;;5.80;69.70;;;;;;5013267;28;20072;-81
2022/01/18 06:23:58;;;;;;;13.97;8.93;;;5.80;69.50;;;;;;4995751;28;20064;-81
2022/01/18 06:26:24;;;;;;;14.70;8.83;;;5.80;69.30;;;;;;4986909;28;20084;-81
2022/01/18 06:28:50;;;;;;;14.50;9.80;;;5.70;69.40;;;;;;4996072;28;20491;-81
2022/01/18 06:31:15;;;;;;;14.43;9.83;;;5.70;69.60;;;;;;5013532;28;20022;-81
2022/01/18 06:33:41;;;;;;;20.30;12.57;;;5.60;69.70;;;;;;4995926;28;20539;-81
2022/01/18 06:36:07;;;;;;;18.43;10.90;;;5.70;69.70;;;;;;5017676;28;20026;-80
2022/01/18 06:38:33;;;;;;;15.47;10.30;;;5.70;69.60;;;;;;4998951;28;20037;-81
2022/01/18 06:40:59;;;;;;;20.93;15.60;;;5.60;69.50;;;;;;5003593;28;20388;-81
2022/01/18 06:43:25;;;;;;;24.07;16.47;;;5.60;69.60;;;;;;5013078;28;20034;-81
2022/01/18 06:45:50;;;;;;;26.57;15.77;;;5.60;69.70;;;;;;4995663;28;20026;-81
2022/01/18 06:48:16;;;;;;;21.30;13.57;;;5.60;69.60;;;;;;5002027;28;20116;-81
2022/01/18 06:50:42;;;;;;;20.63;13.00;;;5.60;69.50;;;;;;4993327;28;20022;-81
2022/01/18 06:53:08;;;;;;;17.00;12.80;;;5.60;69.30;;;;;;5011957;28;20041;-81
2022/01/18 06:55:34;;;;;;;22.90;12.43;;;5.60;69.10;;;;;;5000722;28;20032;-81
2022/01/18 06:58:01;;;;;;;21.50;12.10;;;5.60;69.10;;;;;;5012398;28;20033;-81
2022/01/18 07:00:27;;;;;;;18.47;10.43;;;5.50;69.10;;;;;;4991796;28;20022;-81
2022/01/18 07:02:52;;;;;;;18.13;11.17;;;5.50;69.10;;;;;;4991509;28;20084;-81
2022/01/18 07:05:18;;;;;;;22.00;13.20;;;5.50;69.20;;;;;;4994793;28;20088;-81
2022/01/18 07:07:47;;;;;;;16.43;10.77;;;5.40;69.20;;;;;;4987432;28;20030;-81
2022/01/18 07:10:13;;;;;;;19.87;12.33;;;5.40;69.20;;;;;;5011639;28;20457;-81
2022/01/18 07:12:39;;;;;;;15.93;10.80;;;5.40;69.10;;;;;;4996494;28;20082;-81
2022/01/18 07:15:06;;;;;;;21.93;13.87;;;5.40;69.00;;;;;;4986225;28;20049;-81
2022/01/18 07:17:38;;;;;;;27.53;17.07;;;5.40;69.00;;;;;;4992794;28;20086;-81
2022/01/18 07:20:04;;;;;;;27.63;18.30;;;5.40;69.00;;;;;;4988250;28;20059;-81
2022/01/18 07:22:30;;;;;;;22.33;14.53;;;5.40;69.00;;;;;;4983582;28;20113;-82
2022/01/18 07:24:58;;;;;;;24.33;16.80;;;5.40;68.90;;;;;;4985591;28;20557;-81
2022/01/18 07:27:24;;;;;;;18.97;11.87;;;5.40;69.00;;;;;;4988361;28;20026;-81
2022/01/18 07:29:50;;;;;;;21.27;13.83;;;5.40;69.00;;;;;;4992592;28;20133;-80
2022/01/18 07:32:16;;;;;;;19.57;12.77;;;5.40;68.90;;;;;;4986426;28;20034;-81
2022/01/18 07:35:03;;;;;;;28.47;19.77;;;5.40;68.80;;;;;;4981455;28;20154;-81
2022/01/18 07:37:28;;;;;;;41.07;26.60;;;5.40;69.00;;;;;;4988184;28;20084;-81
2022/01/18 07:39:55;;;;;;;37.37;23.03;;;5.40;68.90;;;;;;4980396;28;20054;-81
2022/01/18 07:42:23;;;;;;;31.53;18.37;;;5.50;68.80;;;;;;4991826;28;20377;-81
2022/01/18 07:44:49;;;;;;;25.73;16.30;;;5.40;68.60;;;;;;4993049;28;20057;-81
2022/01/18 07:47:14;;;;;;;26.27;17.00;;;5.40;68.60;;;;;;4990050;28;20030;-81
2022/01/18 07:49:40;;;;;;;20.17;13.80;;;5.40;68.80;;;;;;4990662;28;20026;-80
2022/01/18 07:52:06;;;;;;;17.67;12.03;;;5.40;68.90;;;;;;4981895;28;20113;-81
2022/01/18 07:54:33;;;;;;;36.50;24.97;;;5.40;68.90;;;;;;4982071;28;20026;-81
2022/01/18 07:56:59;;;;;;;22.20;14.87;;;5.50;69.10;;;;;;4991588;28;20595;-81
2022/01/18 07:59:27;;;;;;;16.50;11.20;;;5.50;68.90;;;;;;4989168;28;20065;-81
2022/01/18 08:01:53;;;;;;;16.87;11.17;;;5.50;68.80;;;;;;4992197;28;20030;-82
2022/01/18 08:04:19;;;;;;;23.27;13.60;;;5.50;68.70;;;;;;4990693;28;20105;-81
2022/01/18 08:06:45;;;;;;;24.43;13.33;;;5.50;68.70;;;;;;4976776;28;20447;-81
2022/01/18 08:09:10;;;;;;;21.13;12.37;;;5.60;68.80;;;;;;4993774;28;20089;-81
2022/01/18 08:11:38;;;;;;;17.87;11.57;;;5.60;68.80;;;;;;4995663;28;20077;-81
2022/01/18 08:14:03;;;;;;;20.23;12.57;;;5.70;68.70;;;;;;4995947;28;20026;-81
2022/01/18 08:18:58;;;;;;;22.23;13.07;;;5.80;68.90;;;;;;5016787;28;20014;-81
2022/01/18 08:21:24;;;;;;;27.40;12.33;;;5.80;68.90;;;;;;4993789;28;20117;-81
2022/01/18 08:23:50;;;;;;;20.57;11.73;;;5.80;68.90;;;;;;5016498;28;20022;-81
2022/01/18 08:26:17;;;;;;;23.30;13.77;;;5.90;69.00;;;;;;5016021;28;20029;-81
2022/01/18 08:28:43;;;;;;;18.30;12.77;;;5.90;69.10;;;;;;4998318;28;20022;-81
2022/01/18 08:31:09;;;;;;;18.67;12.50;;;5.90;69.10;;;;;;4998692;28;20492;-81
2022/01/18 08:33:34;;;;;;;25.37;13.87;;;5.90;69.10;;;;;;4997752;28;20018;-81
2022/01/18 08:36:03;;;;;;;17.57;11.13;;;6.00;69.30;;;;;;4989233;28;20022;-82
2022/01/18 08:38:30;;;;;;;21.43;13.60;;;6.00;69.40;;;;;;4997110;28;20026;-81
2022/01/18 08:40:58;;;;;;;20.17;13.07;;;6.10;69.40;;;;;;5016689;28;20385;-81
2022/01/18 08:43:24;;;;;;;18.77;12.57;;;6.10;69.30;;;;;;4998531;28;20113;-82
2022/01/18 08:45:50;;;;;;;20.13;13.93;;;6.20;69.20;;;;;;4998777;28;20037;-80
2022/01/18 08:48:16;;;;;;;18.80;12.90;;;6.20;69.40;;;;;;5004756;28;20030;-81
2022/01/18 08:50:42;;;;;;;24.37;14.03;;;6.20;69.30;;;;;;5015710;28;20073;-81
2022/01/18 08:53:09;;;;;;;22.57;15.97;;;6.30;69.40;;;;;;5007877;28;20034;-81
2022/01/18 08:55:35;;;;;;;21.33;12.90;;;6.30;69.30;;;;;;4983709;28;20030;-81
2022/01/18 08:58:02;;;;;;;26.27;13.70;;;6.40;69.30;;;;;;4991996;28;20026;-81
2022/01/18 09:00:29;;;;;;;19.10;12.63;;;6.40;69.20;;;;;;4998086;28;20057;-80
2022/01/18 09:02:55;;;;;;;19.63;12.97;;;6.40;69.40;;;;;;4998392;28;20565;-81
2022/01/18 09:05:23;;;;;;;20.17;13.57;;;6.40;69.30;;;;;;4989897;28;20112;-81
2022/01/18 09:07:49;;;;;;;18.53;12.87;;;6.40;69.30;;;;;;4997661;28;20062;-82
2022/01/18 09:10:15;;;;;;;20.97;13.83;;;6.40;69.20;;;;;;4986246;28;20793;-81
2022/01/18 09:12:41;;;;;;;23.53;13.13;;;6.40;69.30;;;;;;4990266;28;20026;-81
2022/01/18 09:15:09;;;;;;;19.67;11.97;;;6.40;69.40;;;;;;4996538;28;20044;-81
2022/01/18 09:17:37;;;;;;;23.30;13.23;;;6.40;69.90;;;;;;4997787;28;20044;-82
2022/01/18 09:20:06;;;;;;;22.23;14.57;;;6.50;69.40;;;;;;4998225;28;20036;-81
2022/01/18 09:22:41;;;;;;;20.97;13.23;;;6.40;69.40;;;;;;4999411;28;20025;-81
2022/01/18 09:25:11;;;;;;;24.23;14.03;;;6.40;69.60;;;;;;5005433;28;20025;-81
2022/01/18 09:27:38;;;;;;;22.00;14.60;;;6.50;69.90;;;;;;5015986;28;20436;-82
2022/01/18 09:30:05;;;;;;;22.13;14.30;;;6.60;69.60;;;;;;4999926;28;20172;-81
2022/01/18 09:32:31;;;;;;;20.27;12.93;;;6.60;69.40;;;;;;5015332;28;20041;-80
2022/01/18 09:34:56;;;;;;;22.87;14.17;;;6.70;69.50;;;;;;5003726;28;20026;-82
2022/01/18 09:37:23;;;;;;;18.93;13.73;;;6.90;69.40;;;;;;4979745;28;20023;-81
2022/01/18 09:39:49;;;;;;;23.83;13.10;;;7.00;69.20;;;;;;4995817;28;20499;-81
2022/01/18 09:42:17;;;;;;;16.80;12.23;;;7.00;69.00;;;;;;5013164;28;20017;-81
2022/01/18 09:44:46;;;;;;;18.27;11.40;;;7.10;68.90;;;;;;4981120;28;20578;-81
2022/01/18 09:47:11;;;;;;;16.53;12.63;;;7.10;68.90;;;;;;4997456;28;20026;-81
2022/01/18 09:49:37;;;;;;;16.20;11.73;;;7.10;69.00;;;;;;4997094;28;20145;-81
2022/01/18 09:52:03;;;;;;;18.20;11.73;;;7.10;69.00;;;;;;4996705;28;20030;-81
2022/01/18 09:54:29;;;;;;;19.37;11.77;;;7.40;69.30;;;;;;5014540;28;20034;-81
2022/01/18 09:56:56;;;;;;;16.00;9.77;;;7.70;68.80;;;;;;4997044;28;20026;-81
2022/01/18 09:59:22;;;;;;;14.03;9.70;;;7.90;68.40;;;;;;4996983;28;20480;-82
2022/01/18 10:01:48;;;;;;;14.50;9.97;;;7.90;68.10;;;;;;4994162;28;20037;-81
2022/01/18 10:04:19;;;;;;;19.87;11.20;;;7.90;67.90;;;;;;4997249;28;20018;-81
2022/01/18 10:06:48;;;;;;;14.43;10.20;;;7.80;67.80;;;;;;4997001;28;20084;-81
2022/01/18 10:09:16;;;;;;;17.20;11.07;;;7.70;68.00;;;;;;4991931;28;20031;-81
2022/01/18 10:12:06;;;;;;;20.97;13.37;;;7.70;68.10;;;;;;4985605;28;20452;-82
2022/01/18 10:14:34;;;;;;;18.40;13.10;;;7.70;68.00;;;;;;5002984;28;20034;-82
2022/01/18 10:17:00;;;;;;;20.73;13.47;;;7.70;68.00;;;;;;4984858;28;20050;-81
2022/01/18 10:19:36;;;;;;;12.73;9.00;;;8.00;67.80;;;;;;4988306;28;20413;-81
2022/01/18 10:22:08;;;;;;;9.37;7.20;;;8.00;67.20;;;;;;4986174;28;20054;-82
2022/01/18 10:24:34;;;;;;;10.20;7.53;;;8.20;67.20;;;;;;4993684;28;20541;-81
2022/01/18 10:27:00;;;;;;;9.80;6.40;;;8.50;67.10;;;;;;4977040;28;20102;-81
2022/01/18 10:29:29;;;;;;;9.23;6.67;;;8.90;66.50;;;;;;4988658;28;20104;-82
2022/01/18 10:32:01;;;;;;;9.63;6.10;;;9.20;65.70;;;;;;4994267;28;20589;-81
2022/01/18 10:37:10;;;;;;;6.50;5.20;;;9.70;64.70;;;;;;4978984;28;20030;-82
2022/01/18 10:39:54;;;;;;;9.03;4.10;;;9.90;64.20;;;;;;4993103;28;20042;-81
2022/01/18 10:42:25;;;;;;;5.20;4.20;;;10.20;63.20;;;;;;4990056;28;20073;-81
2022/01/18 10:45:11;;;;;;;5.53;3.67;;;10.40;62.90;;;;;;4991271;28;20026;-82
2022/01/18 10:47:40;;;;;;;4.20;3.27;;;10.60;61.10;;;;;;4993381;28;20492;-81
2022/01/18 10:50:10;;;;;;;3.20;2.30;;;10.60;61.20;;;;;;4994498;28;20022;-82
2022/01/18 10:52:35;;;;;;;3.17;2.50;;;10.60;60.40;;;;;;4993277;28;20109;-82
2022/01/18 10:55:01;;;;;;;2.93;2.10;;;10.60;60.20;;;;;;4992650;28;20440;-81
2022/01/18 10:57:36;;;;;;;6.07;2.70;;;10.60;59.70;;;;;;4988955;28;20034;-81
2022/01/18 11:00:10;;;;;;;3.30;2.03;;;10.70;59.00;;;;;;4984616;28;20478;-82
2022/01/18 11:02:41;;;;;;;4.93;2.70;;;10.80;58.70;;;;;;4992388;28;20023;-81
2022/01/18 11:05:27;;;;;;;3.07;2.40;;;11.00;58.50;;;;;;4992737;28;20504;-81
2022/01/18 11:07:55;;;;;;;2.67;1.97;;;11.00;57.40;;;;;;4992750;28;20641;-80
2022/01/18 11:10:26;;;;;;;3.93;2.57;;;11.00;57.50;;;;;;4992655;28;20029;-81
2022/01/18 11:13:03;;;;;;;5.10;2.80;;;11.10;57.40;;;;;;4992621;28;20081;-81
2022/01/18 11:15:31;;;;;;;4.00;2.70;;;11.20;56.90;;;;;;4991048;28;20053;-81
2022/01/18 11:18:00;;;;;;;6.63;4.50;;;11.30;56.60;;;;;;4975789;28;20035;-81
2022/01/18 11:20:29;;;;;;;3.80;2.20;;;11.30;56.30;;;;;;4987291;28;20039;-81
2022/01/18 11:22:56;;;;;;;3.47;2.43;;;11.20;56.10;;;;;;4992166;28;20032;-81
2022/01/18 11:25:22;;;;;;;2.77;1.63;;;11.30;56.20;;;;;;4973850;28;20027;-81
2022/01/18 11:27:51;;;;;;;1.90;1.43;;;11.40;55.60;;;;;;4991010;28;20450;-81
2022/01/18 11:30:21;;;;;;;2.50;1.60;;;11.40;55.40;;;;;;4973020;28;20101;-81
2022/01/18 11:32:51;;;;;;;2.33;1.40;;;11.50;55.20;;;;;;4992259;28;20117;-81
2022/01/18 11:35:32;;;;;;;3.20;1.77;;;11.60;54.60;;;;;;4993777;28;20065;-81
2022/01/18 11:38:27;;;;;;;1.80;1.50;;;11.60;54.20;;;;;;4991790;28;20026;-81
2022/01/18 11:40:55;;;;;;;2.83;1.73;;;11.50;54.10;;;;;;4986662;28;20027;-81
2022/01/18 11:43:42;;;;;;;2.50;1.53;;;11.40;54.10;;;;;;5009546;28;20026;-80
2022/01/18 11:46:27;;;;;;;1.93;1.63;;;11.50;53.90;;;;;;4981313;28;20050;-81
2022/01/18 11:49:04;;;;;;;2.10;1.43;;;11.60;53.80;;;;;;4972661;28;20026;-81
2022/01/18 11:51:39;;;;;;;2.33;1.70;;;11.70;53.50;;;;;;4977146;28;20026;-81
2022/01/18 11:54:28;;;;;;;2.07;1.30;;;11.80;53.30;;;;;;4992171;28;20430;-81
2022/01/18 11:56:55;;;;;;;2.20;1.40;;;12.00;52.60;;;;;;4988637;28;20082;-82
2022/01/18 11:59:27;;;;;;;2.67;1.50;;;11.90;52.50;;;;;;4986450;28;20026;-82
2022/01/18 12:01:55;;;;;;;2.00;1.65;;;11.80;52.60;;;;;;4991993;28;20046;-81
2022/01/18 12:07:39;;;;;;;2.10;1.47;;;12.00;51.90;;;;;;4993395;28;20452;-81
2022/01/18 12:10:37;;;;;;;2.37;1.80;;;12.00;52.10;;;;;;4972486;28;20027;-82
2022/01/18 12:13:11;;;;;;;3.63;2.50;;;12.00;52.00;;;;;;4983711;28;20084;-81
2022/01/18 12:15:38;;;;;;;3.77;2.60;;;11.90;52.20;;;;;;4991297;28;20057;-82
2022/01/18 12:18:10;;;;;;;4.30;3.47;;;11.80;52.30;;;;;;4990954;28;20443;-82
2022/01/18 12:20:35;;;;;;;5.13;4.13;;;11.70;52.30;;;;;;4988261;28;20030;-82
2022/01/18 12:23:05;;;;;;;4.80;3.80;;;11.70;52.90;;;;;;4986475;28;20258;-82
2022/01/18 12:26:00;;;;;;;5.43;4.00;;;11.80;52.80;;;;;;4976513;28;20436;-82
2022/01/18 12:34:47;;;;;;;5.13;4.23;;;11.80;52.90;;;;;;4992943;28;20053;-81
2022/01/18 12:37:23;;;;;;;5.57;3.40;;;11.80;53.10;;;;;;4978007;28;20045;-82
2022/01/18 12:45:36;;;;;;;5.07;3.53;;;11.90;52.60;;;;;;4991764;28;20031;-82
2022/01/18 12:48:09;;;;;;;5.03;4.03;;;11.90;52.70;;;;;;4988699;28;20042;-82
2022/01/18 12:50:47;;;;;;;6.93;4.40;;;11.80;52.50;;;;;;4996046;28;20019;-82
2022/01/18 12:53:31;;;;;;;4.27;3.50;;;11.70;53.00;;;;;;4995335;28;20037;-81
2022/01/18 12:56:05;;;;;;;6.13;4.50;;;11.60;52.90;;;;;;4995810;28;20486;-81
2022/01/18 12:58:38;;;;;;;6.93;4.03;;;11.40;53.00;;;;;;4989713;28;20063;-81
2022/01/18 13:01:24;;;;;;;5.75;3.65;;;11.30;53.20;;;;;;4973358;28;20126;-81
2022/01/18 13:03:53;;;;;;;4.43;2.90;;;11.40;53.00;;;;;;4992671;28;20029;-82
2022/01/18 13:06:26;;;;;;;4.80;2.60;;;11.40;52.90;;;;;;4978615;28;20034;-82
2022/01/18 13:08:54;;;;;;;5.57;2.40;;;11.40;52.50;;;;;;4994983;28;20029;-82
2022/01/18 13:11:25;;;;;;;3.70;3.20;;;11.30;52.60;;;;;;4995070;28;20620;-82
2022/01/18 13:14:07;;;;;;;3.20;2.00;;;11.30;52.50;;;;;;4994815;28;20057;-82
2022/01/18 13:23:10;;;;;;;3.77;2.80;;;11.10;52.40;;;;;;4976913;28;20057;-82
2022/01/18 13:25:10;;;;;;;5.10;2.80;;;11.10;52.50;;;;;;4964040;28;20042;-82
2022/01/18 13:27:49;;;;;;;4.60;3.00;;;11.20;52.50;;;;;;4994133;28;20816;-82
2022/01/18 13:30:22;;;;;;;5.10;2.90;;;11.10;52.30;;;;;;4995312;28;20088;-82
2022/01/18 13:32:49;;;;;;;4.53;3.55;;;11.20;52.30;;;;;;4993582;28;20034;-82
2022/01/18 13:35:18;;;;;;;5.20;2.93;;;11.10;52.20;;;;;;4994389;28;20508;-82
2022/01/18 13:37:43;;;;;;;5.03;3.53;;;11.10;52.50;;;;;;4995254;28;20026;-82
2022/01/18 13:40:14;;;;;;;4.93;2.67;;;11.10;52.50;;;;;;4994534;28;20034;-82
2022/01/18 13:42:48;;;;;;;6.10;3.73;;;11.10;52.30;;;;;;4989057;28;20019;-82
2022/01/18 13:45:27;;;;;;;4.07;2.67;;;11.10;52.40;;;;;;4994300;28;20693;-82
2022/01/18 13:47:56;;;;;;;2.40;2.00;;;11.10;52.30;;;;;;4977792;28;20401;-82
2022/01/18 13:50:45;;;;;;;4.40;2.10;;;11.00;52.30;;;;;;4992375;28;20081;-82
2022/01/18 13:53:21;;;;;;;3.80;2.63;;;11.00;52.60;;;;;;4983688;28;20511;-82
2022/01/18 13:55:53;;;;;;;2.53;2.17;;;11.00;52.40;;;;;;4976236;28;20029;-82
2022/01/18 13:58:29;;;;;;;5.80;2.20;;;10.90;52.50;;;;;;4983252;28;20026;-82
2022/01/18 14:01:05;;;;;;;4.77;2.73;;;10.90;52.30;;;;;;4976004;28;20034;-82
2022/01/18 14:03:34;;;;;;;4.80;3.67;;;10.90;52.40;;;;;;4990927;28;20027;-82
2022/01/18 14:06:00;;;;;;;7.43;3.57;;;10.80;52.40;;;;;;4992961;28;20022;-82
2022/01/18 14:08:49;;;;;;;8.93;4.83;;;10.70;52.50;;;;;;4993964;28;20045;-82
2022/01/18 14:11:20;;;;;;;5.73;3.80;;;10.60;53.10;;;;;;4981161;28;20026;-82
2022/01/18 14:13:47;;;;;;;6.90;4.30;;;10.50;53.20;;;;;;4993801;28;20121;-82
2022/01/18 14:16:28;;;;;;;7.47;4.33;;;10.40;53.50;;;;;;4993579;28;20042;-82
2022/01/18 14:19:08;;;;;;;6.23;4.17;;;10.40;53.70;;;;;;4993700;28;20084;-82
2022/01/18 14:21:49;;;;;;;5.73;4.17;;;10.30;53.70;;;;;;4974358;28;20027;-82
2022/01/18 14:24:15;;;;;;;7.87;5.40;;;10.30;53.90;;;;;;4985448;28;20030;-82
2022/01/18 14:26:56;;;;;;;5.00;3.60;;;10.20;54.00;;;;;;4993791;28;20026;-81
2022/01/18 14:29:26;;;;;;;6.00;4.40;;;10.20;54.50;;;;;;4982661;28;20023;-82